ΕΜΥ, Εθνική Μετεωρολογική Υπηρεσία - Δελτία Καιρού, Προγνώσεις

ΑΕΡΟΝΑΥΤΙΛΙΑ

GREEK AIRPORTS CODES

LGBL 120050Z 29006KT 9999 FEW010 BKN030 BKN080 08/06 Q1008=

EUROPEAN AIRPORTS CODES

EBBR 120050Z 22010KT 9999 BKN010 05/03 Q1002 NOSIG=